Terminal Aerodrome Forecast
Issued by NWS

Home | Current Version | Previous Version | Text Only | Print | Product List | Glossary On
Versions: 1 2 3 4 5 6 7 8 9 10 11 12
642
FTUS45 KABQ 230759 AAA
TAFLVS
TAF AMD
KLVS 230759Z 2308/2406 19015G23KT P6SM VCSH BKN015
     FM231200 19015KT 5SM -SHRA BKN015 OVC035
     FM231600 19018G25KT P6SM VCTS BKN035 OVC050CB
     FM231800 21015G23KT 5SM TSRA OVC040CB
     FM232100 19018G25KT 6SM -RA SCT020 OVC050
     FM240000 16013KT 5SM -RA SCT025 OVC040
     FM240400 19010KT P6SM SCT030 SCT050=

USA.gov is the U.S. government's official web portal to all federal, state and local government web resources and services.